Disclaimer

Please do not use the information listed here in-flight or in-navigation, as they are not provided to us by the airports but are provided by volunteers, so they might be outdated.

Search


Regions


Airport information page

Radio informations:
Tower (TWR) - 118.3 MHz
Ground (GND) - 127.25 MHz
PERTH APP - 123.6 MHz
DEP - 135.9 MHz
Clearance delivery - 134.1 MHz
Automatic Terminal Information Service (ATIS) - 340.0 MHz
Approach (APP) - 130.2 MHz
Melbourne Center - 125.2 MHz
PERTH DEP - 118.7 MHz

Airport informations:
Latitude: 31° 40' 04.00" S
Longitude: 116° 00' 54.00" E
Elevation: 149 feet - 45 meters
Operating hours: Remarks
Operating agency: Military
Timezone: UTC+8
Fuel: Jet A1+, Jet A1 with icing inhibitor.

100/130 MIL Spec, low lead, aviation gasoline (BLUE)

Runway information:
05/23 - 5548 x 148 feet< - >1691 x 45 meters
18R/36L - 5712 x 98 feet< - >1741 x 30 meters
18L/36R - 8002 x 148 feet< - >2439 x 45 meters

Recent METARs:
YPEA 142000Z AUTO 00000KT 9999 // NCD 16/13 Q1014
YPEA 142000Z AUTO 00000KT 9999 // NCD 16/13 Q1014
YPEA 142100Z AUTO 34005KT 9999 // NCD 14/12 Q1015

Airport on the map: